Flight Track Log - Related Links

Times and Time Zones

All times are in EDT time to prevent confusion due to time zone crossing. See the N6540Y flight status page for this flight to view local times or setup timezone preferences in your user account.

Time Position Orientation Groundspeed Altitude Reporting Facility
EDT Latitude Longitude Course Direction KTS MPH feet Rate Location/Type
Wed 04:02:20 PM 24.5569 -81.7722 169° South 130 150 5,000  Level Miami Center
Wed 04:03:20 PM 24.6725 -81.7561 North 165 190 2,100 -1,200 Descending Miami Center
Wed 04:04:20 PM 24.7083 -81.7439 17° North 149 171 2,600 450 Climbing Miami Center
Wed 04:05:20 PM 24.7506 -81.7319 14° North 162 186 3,000 446 Climbing Miami Center
Wed 04:06:21 PM 24.7883 -81.7242 11° North 157 181 3,500 450 Climbing Miami Center
Wed 04:07:20 PM 24.8264 -81.7119 16° North 150 173 3,900 353 Climbing Miami Center
Wed 04:08:20 PM 24.8622 -81.6997 17° North 138 159 4,200 300 Climbing Miami Center
Wed 04:09:20 PM 24.8981 -81.6872 18° North 133 153 4,500 350 Climbing Miami Center
Wed 04:10:20 PM 24.9361 -81.6728 19° North 133 153 4,900 248 Climbing Miami Center
Wed 04:11:21 PM 24.9742 -81.6628 13° North 133 153 5,000 99 Climbing Miami Center
Wed 04:12:21 PM 25.0164 -81.6508 14° North 138 159 5,100  Climbing Miami Center
Wed 04:13:20 PM 25.0583 -81.6386 15° North 149 171 5,000  Descending Miami Center
Wed 04:14:20 PM 25.1008 -81.6219 20° North 149 171 5,100 -99 Climbing Miami Center
Wed 04:15:21 PM 25.1450 -81.6122 11° North 149 171 4,800 -397 Descending Miami Center
Wed 04:16:21 PM 25.1914 -81.5981 15° North 154 177 4,300 -450 Descending Miami Center
Wed 04:17:21 PM 25.2378 -81.5836 16° North 165 190 3,900 -150 Descending Miami Center
Wed 04:18:21 PM 25.2778 -81.5714 15° North 160 184 4,000 100 Climbing Miami Center
Wed 04:19:21 PM 25.3197 -81.5617 12° North 155 178 4,100  Climbing Miami Center
Wed 04:20:21 PM 25.3619 -81.5472 17° North 155 178 4,000 -50 Descending Miami Center
Wed 04:21:21 PM 25.4022 -81.5350 15° North 150 173 4,000  Level Miami Center
Wed 04:22:21 PM 25.4464 -81.5228 14° North 150 173 4,000  Level Miami Center
Wed 04:23:20 PM 25.4883 -81.5153 North 145 167 4,000 -50 Level Miami Center
Wed 04:24:20 PM 25.5281 -81.5189 355° North 140 161 3,900 50 Descending Miami Center
Wed 04:25:21 PM 25.5692 -81.5389 336° Northwest 145 167 4,100 99 Climbing Miami Center
Wed 04:26:21 PM 25.6061 -81.5567 337° Northwest 145 167 4,100  Level Miami Center
Wed 04:27:21 PM 25.6472 -81.5719 341° North 150 173 4,100 -50 Level Miami Center
Wed 04:28:21 PM 25.6928 -81.5922 338° Northwest 150 173 4,000 -50 Descending Miami Center
Wed 04:29:21 PM 25.7319 -81.6053 343° North 150 173 4,000  Level Miami Center
Wed 04:30:21 PM 25.7733 -81.6183 344° North 145 167 4,000 50 Level Miami Center
Wed 04:31:21 PM 25.8125 -81.6314 343° North 145 167 4,100  Climbing Miami Center
Wed 04:32:21 PM 25.8536 -81.6469 341° North 145 167 4,000 -400 Descending Miami Center
Wed 04:33:21 PM 25.8950 -81.6625 341° North 150 173 3,300 -500 Descending Miami Center
Wed 04:34:21 PM 25.9383 -81.6758 345° North 155 178 3,000 -200 Descending Miami Center
Wed 04:35:21 PM 25.9842 -81.6822 353° North 155 178 2,900 -150 Descending Miami Center
Wed 04:36:21 PM 26.0233 -81.6931 346° North 160 184 2,700 -300 Descending Miami Center
Wed 04:37:21 PM 26.0669 -81.7064 345° North 160 184 2,300 -350 Descending Miami Center
Wed 04:38:21 PM 26.1103 -81.7150 350° North 160 184 2,000 -353 Descending Miami Center
Wed 04:39:20 PM 26.1472 -81.7350 334° Northwest 152 175 1,600 -407 Descending Miami Center

Login

Don't have an account? Register now (free) for customized features, flight alerts, and more!